CheckWX is a tool to help pilots better visualize weather data.  It is not intended as a substitute for an official pre-flight weather briefing.

11:47:32 UTC

KIWD TAF
Gogebic-Iron County Airport
Ironwood, Michigan, USA
KIWD 271120Z 2712/2812 26005KT 2SM -SHSN OVC004 FM271400 VRB04KT 3SM -SHSN OVC006 FM272000 33006KT P6SM -SHSN OVC007 FM280400 VRB03KT 4SM -SHSN OVC009 FM280900 33005KT 2SM -SHSN OVC007

Jan-27@
12:00 UTC

Jan-27 @ 12:00 UTC

Jan-27@
14:00 UTC

Jan-27 @ 14:00 UTC

KIWD 271120Z 2712/2812 26005KT 2SM -SHSN OVC004
Wind
  • 260° at 5 KTS
Conditions
Light Snow
Cloud Levels
  • Overcast at 400' AGL

Jan-27@
14:00 UTC

Jan-27 @ 14:00 UTC

Jan-27@
20:00 UTC

Jan-27 @ 20:00 UTC

FM271400 VRB04KT 3SM -SHSN OVC006

From

From Standard forecast or significant change

Wind
  • Variable at 4 KTS
Conditions
Light Snow
Cloud Levels
  • Overcast at 600' AGL

Jan-27@
20:00 UTC

Jan-27 @ 20:00 UTC

Jan-28@
04:00 UTC

Jan-28 @ 04:00 UTC

FM272000 33006KT P6SM -SHSN OVC007

From

From Standard forecast or significant change

Wind
  • 330° at 6 KTS
Conditions
Light Snow
Cloud Levels
  • Overcast at 700' AGL

Jan-28@
04:00 UTC

Jan-28 @ 04:00 UTC

Jan-28@
09:00 UTC

Jan-28 @ 09:00 UTC

FM280400 VRB03KT 4SM -SHSN OVC009

From

From Standard forecast or significant change

Wind
  • Variable at 3 KTS
Conditions
Light Snow
Cloud Levels
  • Overcast at 900' AGL

Jan-28@
09:00 UTC

Jan-28 @ 09:00 UTC

Jan-28@
12:00 UTC

Jan-28 @ 12:00 UTC

FM280900 33005KT 2SM -SHSN OVC007

From

From Standard forecast or significant change

Wind
  • 330° at 5 KTS
Conditions
Light Snow
Cloud Levels
  • Overcast at 700' AGL